Time;durP1;ratioP1;P1;durP2;ratioP2;P2;SDS_P1;SDS_P2;PMS_P1;PMS_P2;Temp;Humidity;BMP_temperature;BMP_pressure;BME280_temperature;BME280_humidity;BME280_pressure;Samples;Min_cycle;Max_cycle;Signal;HPM_P1;HPM_P2
2023/06/22 04:32:58;;;;;;;;;5.00;4.25;;;;;32.25;34.86;101100.41;5033919;28;46420;-80
2023/06/22 04:35:24;;;;;;;;;5.00;5.00;;;;;32.05;35.64;101068.88;4992678;28;45403;-81
2023/06/22 04:37:50;;;;;;;;;5.75;4.25;;;;;32.18;35.27;101085.63;4999343;28;45526;-79
2023/06/22 04:40:16;;;;;;;;;4.00;4.00;;;;;32.29;35.48;101089.75;5026163;28;45502;-80
2023/06/22 04:42:51;;;;;;;;;6.00;6.00;;;;;32.21;36.11;101101.88;5019756;28;47837;-82
2023/06/22 04:45:17;;;;;;;;;3.50;3.50;;;;;32.28;35.84;101094.44;5033525;28;45784;-80
2023/06/22 04:47:45;;;;;;;;;5.50;4.75;;;;;32.36;36.25;101095.34;5018714;28;45406;-81
2023/06/22 04:50:11;;;;;;;;;8.50;5.75;;;;;32.15;36.20;101077.69;5035521;28;45495;-80
2023/06/22 04:52:37;;;;;;;;;5.50;5.25;;;;;32.12;36.28;101066.13;5017648;28;48263;-82
2023/06/22 04:55:03;;;;;;;;;5.75;5.75;;;;;32.13;35.97;101084.50;5018272;28;45507;-81
2023/06/22 04:57:32;;;;;;;;;6.00;5.00;;;;;32.14;36.90;101077.91;5036501;28;45534;-81
2023/06/22 05:00:10;;;;;;;;;5.75;4.75;;;;;32.13;36.66;101078.94;5024257;28;45465;-82
2023/06/22 05:02:37;;;;;;;;;8.75;6.25;;;;;32.09;37.09;101080.41;5022609;28;46184;-80
2023/06/22 05:05:06;;;;;;;;;6.25;4.25;;;;;32.15;37.42;101093.47;5036255;28;45335;-82
2023/06/22 05:07:35;;;;;;;;;7.00;7.00;;;;;32.03;37.35;101078.44;5011464;28;45409;-77
2023/06/22 05:10:04;;;;;;;;;6.50;6.50;;;;;32.09;37.46;101089.59;4998312;28;46371;-81
2023/06/22 05:12:30;;;;;;;;;8.00;5.00;;;;;32.12;37.56;101103.06;4998146;28;47285;-76
2023/06/22 05:14:56;;;;;;;;;7.00;6.00;;;;;31.98;37.53;101086.53;5031352;28;45478;-81
2023/06/22 05:17:21;;;;;;;;;6.00;6.00;;;;;32.11;37.63;101097.72;5037367;28;45423;-78
2023/06/22 05:19:50;;;;;;;;;8.50;6.75;;;;;31.87;37.79;101099.88;5021454;28;45292;-77
2023/06/22 05:22:16;;;;;;;;;8.25;8.25;;;;;31.87;38.09;101091.56;5017243;28;45383;-77
2023/06/22 05:24:42;;;;;;;;;9.75;5.75;;;;;31.88;38.75;101090.50;4998640;28;45345;-77
2023/06/22 05:27:08;;;;;;;;;6.50;4.75;;;;;31.91;38.24;101090.09;5016594;28;45274;-76
2023/06/22 05:29:33;;;;;;;;;11.50;10.00;;;;;31.76;38.77;101080.16;5017038;28;45407;-76
2023/06/22 05:32:00;;;;;;;;;9.50;8.00;;;;;31.76;39.04;101083.78;5031972;28;46155;-76
2023/06/22 05:34:25;;;;;;;;;12.50;8.50;;;;;31.76;39.24;101074.59;5048813;28;45528;-73
2023/06/22 05:36:51;;;;;;;;;8.75;8.75;;;;;31.63;38.88;101064.28;5045697;28;45355;-77
2023/06/22 05:39:16;;;;;;;;;6.50;6.50;;;;;31.74;39.37;101060.94;5035821;28;45279;-75
2023/06/22 05:41:43;;;;;;;;;9.00;8.00;;;;;31.75;39.52;101073.75;5035903;28;46121;-77
2023/06/22 05:44:08;;;;;;;;;12.00;8.00;;;;;31.73;39.21;101062.00;5043800;28;45415;-77
2023/06/22 05:46:34;;;;;;;;;12.50;10.25;;;;;31.58;39.31;101073.13;5035832;28;45373;-76
2023/06/22 05:48:59;;;;;;;;;8.00;8.00;;;;;31.65;39.81;101081.53;5035670;28;45328;-75
2023/06/22 05:51:24;;;;;;;;;11.25;10.75;;;;;31.72;40.19;101078.84;5044995;28;45257;-75
2023/06/22 05:53:50;;;;;;;;;10.50;7.00;;;;;31.82;39.83;101077.41;5032672;28;45331;-74
2023/06/22 05:56:16;;;;;;;;;10.50;10.25;;;;;31.78;39.78;101073.34;5055661;28;45184;-74
2023/06/22 05:58:42;;;;;;;;;11.25;11.25;;;;;31.75;40.37;101075.66;5055762;28;45348;-76
2023/06/22 06:01:08;;;;;;;;;14.75;11.50;;;;;31.65;40.57;101066.81;5055289;28;46256;-75
2023/06/22 06:03:33;;;;;;;;;13.25;8.75;;;;;31.77;39.78;101087.41;5055109;28;45482;-76
2023/06/22 06:05:59;;;;;;;;;11.75;10.50;;;;;31.85;40.34;101081.72;5055758;28;45260;-75
2023/06/22 06:08:25;;;;;;;;;11.25;11.25;;;;;31.91;40.68;101079.00;5040711;28;45498;-75
2023/06/22 06:10:52;;;;;;;;;11.50;8.75;;;;;31.85;40.53;101082.56;5017048;28;46155;-76
2023/06/22 06:13:18;;;;;;;;;10.75;10.75;;;;;31.75;40.67;101076.50;5035542;28;45398;-76
2023/06/22 06:15:43;;;;;;;;;14.50;14.50;;;;;31.77;41.08;101073.56;5035552;28;45391;-75
2023/06/22 06:18:09;;;;;;;;;17.50;13.25;;;;;31.73;41.19;101077.78;5035211;28;45471;-75
2023/06/22 06:20:34;;;;;;;;;11.25;8.50;;;;;31.73;40.93;101078.63;5035411;28;45242;-75
2023/06/22 06:22:59;;;;;;;;;13.00;10.75;;;;;31.72;41.31;101074.16;5035232;28;45254;-75
2023/06/22 06:25:25;;;;;;;;;13.00;10.50;;;;;31.73;41.68;101069.47;5035269;28;45527;-74
2023/06/22 06:27:51;;;;;;;;;15.00;12.75;;;;;31.79;41.43;101063.97;5035197;28;45516;-77
2023/06/22 06:30:18;;;;;;;;;17.25;13.25;;;;;31.76;41.91;101081.00;5033833;28;46172;-76
2023/06/22 06:32:47;;;;;;;;;12.50;12.00;;;;;31.71;41.19;101074.34;5039775;28;45361;-75
2023/06/22 06:35:15;;;;;;;;;11.50;11.50;;;;;31.78;41.25;101081.66;5037335;28;46959;-75
2023/06/22 06:37:44;;;;;;;;;17.00;13.00;;;;;31.77;41.36;101092.97;5036715;28;46250;-76
2023/06/22 06:40:11;;;;;;;;;14.25;11.75;;;;;31.73;41.46;101092.50;5036554;28;47200;-75
2023/06/22 06:42:41;;;;;;;;;18.25;16.50;;;;;31.60;40.98;101100.66;5054709;28;45312;-75
2023/06/22 06:45:24;;;;;;;;;16.75;13.75;;;;;31.60;41.51;101089.56;5055214;28;45327;-76
2023/06/22 06:47:51;;;;;;;;;17.50;13.75;;;;;31.60;42.40;101092.34;5054311;28;45233;-75
2023/06/22 06:50:16;;;;;;;;;16.50;14.25;;;;;31.66;42.49;101072.16;5054907;28;47923;-75
2023/06/22 06:52:42;;;;;;;;;19.75;16.00;;;;;31.65;42.01;101064.91;5054836;28;45324;-76
2023/06/22 06:55:11;;;;;;;;;16.75;14.00;;;;;31.67;42.25;101062.81;5055030;28;45170;-75
2023/06/22 06:57:41;;;;;;;;;17.75;16.75;;;;;31.68;42.27;101058.97;5054794;28;45284;-75
2023/06/22 07:00:11;;;;;;;;;15.25;14.25;;;;;31.72;42.32;101056.66;5054851;28;45374;-75
2023/06/22 07:02:42;;;;;;;;;14.50;11.75;;;;;31.68;42.97;101047.03;5036404;28;45399;-76
2023/06/22 07:05:08;;;;;;;;;17.25;16.25;;;;;31.71;41.85;101061.34;5033672;28;45375;-76
2023/06/22 07:07:33;;;;;;;;;19.25;15.00;;;;;31.70;42.55;101058.78;5054586;28;45318;-76
2023/06/22 07:09:59;;;;;;;;;19.75;15.75;;;;;31.59;42.46;101060.13;5054562;28;45409;-77
2023/06/22 07:12:25;;;;;;;;;17.00;16.00;;;;;31.69;43.03;101069.00;5054810;28;45920;-74
2023/06/22 07:15:00;;;;;;;;;16.75;13.75;;;;;31.55;43.08;101065.25;5055119;28;45344;-76
2023/06/22 07:17:25;;;;;;;;;19.50;16.50;;;;;31.62;42.44;101059.78;5054952;28;45501;-75
2023/06/22 07:19:51;;;;;;;;;18.25;16.50;;;;;31.54;42.37;101065.44;5054795;28;46185;-76
2023/06/22 07:22:16;;;;;;;;;26.75;18.75;;;;;31.56;43.09;101055.84;5054843;28;45324;-76
2023/06/22 07:24:42;;;;;;;;;18.25;16.75;;;;;31.57;42.61;101059.47;5054352;28;45436;-77
2023/06/22 07:27:07;;;;;;;;;16.75;16.50;;;;;31.51;42.47;101065.81;5036044;28;46314;-76
2023/06/22 07:29:33;;;;;;;;;21.00;17.00;;;;;31.51;42.77;101054.75;5035922;28;48183;-76
2023/06/22 07:32:00;;;;;;;;;26.75;22.50;;;;;31.52;43.06;101056.47;5046011;28;45316;-76
2023/06/22 07:34:25;;;;;;;;;22.00;21.00;;;;;31.48;42.40;101063.44;5047061;28;45406;-76
2023/06/22 07:36:51;;;;;;;;;20.75;19.50;;;;;31.50;42.46;101053.03;5046222;28;45384;-75
2023/06/22 07:39:16;;;;;;;;;20.00;20.00;;;;;31.44;43.24;101051.91;5033959;28;46305;-77
2023/06/22 07:41:42;;;;;;;;;21.75;21.25;;;;;31.46;42.91;101055.34;5034019;28;45256;-75
2023/06/22 07:44:07;;;;;;;;;24.75;22.00;;;;;31.39;42.85;101053.56;5034553;28;45648;-75
2023/06/22 07:46:33;;;;;;;;;22.75;20.25;;;;;31.40;42.34;101058.91;5034420;28;45590;-77
2023/06/22 07:48:59;;;;;;;;;20.00;19.00;;;;;31.18;43.21;101051.66;5033987;28;45396;-76
2023/06/22 07:51:24;;;;;;;;;22.00;19.25;;;;;31.12;43.39;101058.84;5034194;28;45450;-75
2023/06/22 07:53:50;;;;;;;;;16.25;16.25;;;;;31.12;42.66;101060.75;5033969;28;45378;-76
2023/06/22 07:56:18;;;;;;;;;21.50;19.75;;;;;30.87;44.18;101051.06;5033779;28;45339;-76
2023/06/22 07:58:45;;;;;;;;;19.75;17.75;;;;;30.94;43.07;101065.84;5033940;28;46179;-76
2023/06/22 08:01:11;;;;;;;;;24.75;20.50;;;;;30.84;44.19;101058.69;5032462;28;45422;-74
2023/06/22 08:03:36;;;;;;;;;18.50;17.00;;;;;30.76;44.13;101067.13;5044166;28;45317;-76
2023/06/22 08:06:02;;;;;;;;;24.00;22.50;;;;;30.81;44.49;101072.06;5057381;28;45223;-75
2023/06/22 08:08:27;;;;;;;;;24.00;22.00;;;;;30.61;44.13;101076.50;5042259;28;45508;-75
2023/06/22 08:10:52;;;;;;;;;19.75;19.75;;;;;30.44;44.41;101067.50;5037153;28;45328;-75
2023/06/22 08:13:17;;;;;;;;;21.25;19.25;;;;;30.39;45.11;101073.59;5037600;28;45261;-77
2023/06/22 08:15:43;;;;;;;;;17.00;17.00;;;;;30.53;44.89;101062.78;5037529;28;45543;-75
2023/06/22 08:18:08;;;;;;;;;26.00;24.00;;;;;30.69;45.11;101070.84;5037232;28;46257;-75
2023/06/22 08:20:33;;;;;;;;;23.75;23.75;;;;;30.60;44.82;101070.09;5037475;28;45315;-76
2023/06/22 08:23:05;;;;;;;;;24.00;21.75;;;;;30.62;44.27;101064.38;5037194;28;45232;-75
2023/06/22 08:25:30;;;;;;;;;22.75;22.00;;;;;30.73;44.84;101075.78;5036844;28;45239;-76
2023/06/22 08:27:56;;;;;;;;;21.25;20.25;;;;;30.82;44.19;101074.63;5036926;28;45157;-75
2023/06/22 08:30:21;;;;;;;;;27.50;25.00;;;;;30.81;44.82;101070.16;5037142;28;45364;-76
2023/06/22 08:32:46;;;;;;;;;27.00;22.50;;;;;30.67;45.21;101076.59;5040633;28;45217;-76
2023/06/22 08:35:12;;;;;;;;;22.00;21.50;;;;;30.57;44.98;101075.16;5056681;28;45457;-75
2023/06/22 08:37:38;;;;;;;;;28.50;23.00;;;;;30.35;45.21;101086.13;5041562;28;46125;-76
2023/06/22 08:40:07;;;;;;;;;23.75;22.50;;;;;30.15;45.75;101084.94;5036858;28;45279;-76
2023/06/22 08:42:33;;;;;;;;;35.75;31.50;;;;;30.16;45.79;101083.06;5032340;28;45571;-76
2023/06/22 08:44:58;;;;;;;;;23.75;22.25;;;;;30.13;45.86;101088.94;5036923;28;45378;-75
2023/06/22 08:47:23;;;;;;;;;24.00;24.00;;;;;29.97;46.45;101087.22;5036784;28;45966;-75
2023/06/22 08:49:49;;;;;;;;;22.75;21.50;;;;;29.95;45.60;101076.34;5036861;28;45322;-74
2023/06/22 08:52:15;;;;;;;;;23.75;23.25;;;;;29.94;45.85;101082.91;5023658;28;45292;-76
2023/06/22 08:54:40;;;;;;;;;25.00;24.75;;;;;29.99;46.45;101083.22;5036776;28;45691;-75
2023/06/22 08:57:06;;;;;;;;;32.25;25.00;;;;;30.00;45.86;101079.41;5036450;28;45303;-74
2023/06/22 08:59:31;;;;;;;;;29.25;27.50;;;;;29.96;46.27;101085.50;5036852;28;45252;-76
2023/06/22 09:01:57;;;;;;;;;29.00;25.00;;;;;29.95;46.53;101081.88;5024012;28;45225;-76
2023/06/22 09:04:22;;;;;;;;;28.00;26.25;;;;;30.07;46.89;101088.66;5038268;28;45339;-75
2023/06/22 09:06:49;;;;;;;;;20.75;19.75;;;;;30.13;46.17;101081.50;5055494;28;46061;-75
2023/06/22 09:09:16;;;;;;;;;27.00;22.25;;;;;30.26;45.58;101075.34;5036449;28;45473;-75
2023/06/22 09:11:42;;;;;;;;;25.00;24.00;;;;;30.16;45.42;101077.53;5036028;28;45331;-76
2023/06/22 09:14:08;;;;;;;;;23.00;19.25;;;;;30.26;44.83;101083.63;5034794;28;47009;-75
2023/06/22 09:16:34;;;;;;;;;24.25;23.25;;;;;30.33;45.76;101085.44;5036379;28;45471;-76
2023/06/22 09:18:59;;;;;;;;;22.25;20.75;;;;;30.57;45.27;101097.28;5036329;28;45935;-75
2023/06/22 09:21:24;;;;;;;;;24.50;21.50;;;;;30.42;45.26;101084.31;5036240;28;45616;-75
2023/06/22 09:23:51;;;;;;;;;22.75;22.75;;;;;30.37;44.74;101106.13;5036154;28;45588;-75
2023/06/22 09:26:20;;;;;;;;;19.50;18.25;;;;;30.38;45.29;101093.16;5035976;28;45534;-76
2023/06/22 09:28:45;;;;;;;;;23.75;23.75;;;;;30.36;45.58;101098.03;5035987;28;45347;-76
2023/06/22 09:31:11;;;;;;;;;23.25;22.25;;;;;30.50;45.23;101088.00;5040560;28;45333;-75
2023/06/22 09:33:40;;;;;;;;;21.25;18.25;;;;;30.39;45.01;101089.34;5042386;28;45504;-75
2023/06/22 09:36:09;;;;;;;;;22.25;19.75;;;;;30.50;44.54;101105.47;5054060;28;46557;-75
2023/06/22 09:38:37;;;;;;;;;23.50;22.75;;;;;30.51;44.78;101104.47;5035738;28;45317;-76
2023/06/22 09:41:03;;;;;;;;;20.50;16.25;;;;;30.48;44.35;101102.91;5035643;28;45442;-75
2023/06/22 09:43:28;;;;;;;;;21.50;20.25;;;;;30.40;44.74;101111.28;5034423;28;45341;-74
2023/06/22 09:45:54;;;;;;;;;15.75;14.50;;;;;30.44;44.33;101098.81;5035932;28;45329;-76
2023/06/22 09:48:19;;;;;;;;;21.25;21.25;;;;;30.40;44.32;101114.06;5036061;28;45310;-76
2023/06/22 09:50:44;;;;;;;;;22.00;18.50;;;;;30.53;44.26;101118.13;5035928;28;45359;-75
2023/06/22 09:53:10;;;;;;;;;17.75;17.25;;;;;30.50;44.05;101124.00;5036276;28;45475;-76
2023/06/22 09:55:35;;;;;;;;;19.00;17.00;;;;;30.44;44.13;101114.56;5035421;28;46372;-76
2023/06/22 09:58:00;;;;;;;;;20.00;16.75;;;;;30.60;44.03;101116.28;5035687;28;48965;-76
2023/06/22 10:00:26;;;;;;;;;18.00;14.75;;;;;30.56;44.00;101117.72;5035877;28;45232;-75
2023/06/22 10:02:52;;;;;;;;;22.75;18.75;;;;;30.42;44.20;101119.41;5035711;28;45373;-78
2023/06/22 10:05:17;;;;;;;;;21.00;16.25;;;;;30.43;44.35;101140.50;5051301;28;45359;-76
2023/06/22 10:07:43;;;;;;;;;17.50;16.00;;;;;30.45;44.25;101128.16;5046668;28;45237;-78
2023/06/22 10:10:10;;;;;;;;;18.75;18.75;;;;;30.50;44.04;101133.16;5033282;28;45742;-76
2023/06/22 10:12:35;;;;;;;;;18.50;17.50;;;;;30.52;44.55;101133.84;5055740;28;45548;-76
2023/06/22 10:15:01;;;;;;;;;21.75;19.25;;;;;30.61;43.83;101132.72;5055466;28;45395;-78
2023/06/22 10:17:26;;;;;;;;;13.75;13.25;;;;;30.79;43.65;101130.38;5055837;28;45256;-77
2023/06/22 10:19:52;;;;;;;;;18.50;16.50;;;;;30.93;43.77;101125.91;5055791;28;45304;-75
2023/06/22 10:22:17;;;;;;;;;15.75;15.00;;;;;31.01;43.52;101125.78;5037012;28;45485;-76
2023/06/22 10:24:44;;;;;;;;;16.25;16.25;;;;;31.18;43.50;101134.75;5055375;28;45930;-74
2023/06/22 10:27:13;;;;;;;;;17.75;16.00;;;;;31.34;43.51;101130.88;5037355;28;45395;-75
2023/06/22 10:29:39;;;;;;;;;15.50;12.75;;;;;31.49;43.44;101134.44;5055670;28;45571;-77
2023/06/22 10:32:05;;;;;;;;;19.25;17.00;;;;;31.57;42.38;101131.53;5045567;28;45431;-76
2023/06/22 10:34:30;;;;;;;;;17.25;16.00;;;;;31.68;42.30;101136.59;5048781;28;46302;-76
2023/06/22 10:36:55;;;;;;;;;15.50;13.25;;;;;31.75;42.35;101137.50;5046505;28;45292;-76
2023/06/22 10:39:20;;;;;;;;;14.50;13.50;;;;;31.80;41.57;101145.25;5035354;28;45490;-77
2023/06/22 10:41:46;;;;;;;;;13.00;13.00;;;;;31.88;42.07;101143.19;5035168;28;49064;-76
2023/06/22 10:44:12;;;;;;;;;15.50;15.00;;;;;31.89;41.52;101149.59;5035157;28;46046;-77
2023/06/22 10:46:37;;;;;;;;;18.25;17.50;;;;;32.00;41.35;101149.03;5035348;28;45615;-77
2023/06/22 10:49:03;;;;;;;;;12.50;12.50;;;;;32.11;42.01;101144.88;5035211;28;45336;-77
2023/06/22 10:51:28;;;;;;;;;14.50;14.00;;;;;32.21;41.06;101156.50;5035006;28;45545;-75
2023/06/22 10:53:53;;;;;;;;;12.75;12.75;;;;;32.27;41.16;101158.47;5034807;28;46129;-77
2023/06/22 10:56:19;;;;;;;;;14.00;12.50;;;;;32.38;40.67;101174.56;5034599;28;45500;-76
2023/06/22 10:58:45;;;;;;;;;16.00;13.50;;;;;32.37;40.90;101178.41;5035005;28;45248;-75
2023/06/22 11:01:10;;;;;;;;;14.25;13.00;;;;;32.22;40.92;101188.75;5034835;28;45229;-77
2023/06/22 11:03:36;;;;;;;;;13.50;13.00;;;;;32.21;40.44;101187.03;5036308;28;46652;-76
2023/06/22 11:06:01;;;;;;;;;16.00;13.75;;;;;32.14;40.41;101181.41;5054521;28;45370;-75
2023/06/22 11:08:26;;;;;;;;;14.00;12.00;;;;;32.19;40.90;101186.38;5039858;28;45398;-76
2023/06/22 11:10:52;;;;;;;;;14.50;12.50;;;;;32.28;40.21;101185.16;5034054;28;46632;-77
2023/06/22 11:13:18;;;;;;;;;12.25;12.00;;;;;32.41;40.74;101179.69;5016373;28;46261;-76
2023/06/22 11:15:43;;;;;;;;;17.00;13.75;;;;;32.56;40.29;101190.72;5034666;28;45576;-76
2023/06/22 11:18:08;;;;;;;;;14.50;11.75;;;;;32.58;39.49;101174.72;5034803;28;45586;-77
2023/06/22 11:20:38;;;;;;;;;11.75;10.75;;;;;32.38;39.83;101184.81;5034434;28;45275;-76
2023/06/22 11:23:06;;;;;;;;;12.75;11.00;;;;;32.58;39.31;101192.22;5034291;28;47147;-76
2023/06/22 11:25:34;;;;;;;;;12.75;12.75;;;;;32.58;39.90;101192.22;5034078;28;45240;-76
2023/06/22 11:28:01;;;;;;;;;17.00;12.50;;;;;32.62;39.96;101189.91;5034451;28;45588;-77
2023/06/22 11:30:27;;;;;;;;;16.00;14.25;;;;;32.79;38.96;101182.13;5034407;28;45273;-76
2023/06/22 11:32:52;;;;;;;;;15.00;12.00;;;;;32.75;38.93;101201.09;5029746;28;45375;-77
2023/06/22 11:35:17;;;;;;;;;10.75;10.75;;;;;32.82;38.43;101192.84;5022431;28;45335;-76
2023/06/22 11:37:43;;;;;;;;;15.75;14.00;;;;;32.81;38.60;101189.19;5034276;28;45326;-76
2023/06/22 11:40:09;;;;;;;;;13.00;11.75;;;;;32.83;38.53;101189.88;5033710;28;45415;-76
2023/06/22 11:42:34;;;;;;;;;10.50;10.25;;;;;32.97;38.34;101193.56;5033793;28;45380;-77
2023/06/22 11:45:00;;;;;;;;;7.75;7.75;;;;;33.01;38.56;101192.06;5015905;28;45786;-76
2023/06/22 11:47:25;;;;;;;;;12.75;11.75;;;;;33.09;37.71;101188.28;5034066;28;46040;-76
2023/06/22 11:49:50;;;;;;;;;12.25;12.25;;;;;33.11;37.74;101203.66;5015759;28;46446;-75
2023/06/22 11:52:17;;;;;;;;;15.75;11.75;;;;;33.13;38.19;101197.91;5033837;28;46063;-77
2023/06/22 11:54:43;;;;;;;;;9.00;9.00;;;;;33.15;38.02;101204.97;5033892;28;45335;-77
2023/06/22 11:57:08;;;;;;;;;13.50;11.75;;;;;33.21;37.17;101198.63;5033818;28;45193;-76
2023/06/22 11:59:33;;;;;;;;;15.50;14.25;;;;;33.30;37.60;101207.63;5034278;28;45694;-76
2023/06/22 12:01:59;;;;;;;;;13.75;10.00;;;;;33.32;37.63;101194.38;5034008;28;46159;-76
2023/06/22 12:04:25;;;;;;;;;12.00;12.00;;;;;33.41;37.67;101201.47;5033963;28;45265;-76
2023/06/22 12:06:50;;;;;;;;;10.75;10.75;;;;;33.55;36.94;101194.88;5018677;28;45406;-76
2023/06/22 12:09:15;;;;;;;;;11.75;11.25;;;;;33.59;37.33;101193.41;5013989;28;45637;-76
2023/06/22 12:11:40;;;;;;;;;12.00;9.75;;;;;33.68;37.07;101186.59;5013061;28;46019;-76
2023/06/22 12:14:06;;;;;;;;;15.50;13.50;;;;;33.68;37.11;101181.03;5013908;28;45385;-75
2023/06/22 12:16:31;;;;;;;;;16.25;11.50;;;;;33.90;36.94;101192.00;5013774;28;45380;-76
2023/06/22 12:18:57;;;;;;;;;11.50;8.75;;;;;34.00;36.65;101190.50;5013670;28;45373;-76
2023/06/22 12:21:22;;;;;;;;;11.00;10.25;;;;;34.05;35.90;101193.50;5013610;28;46110;-76
2023/06/22 12:23:47;;;;;;;;;12.00;11.50;;;;;34.19;35.50;101199.94;5013794;28;45379;-76
2023/06/22 12:26:13;;;;;;;;;11.00;9.75;;;;;34.22;35.88;101207.84;5013568;28;45379;-75
2023/06/22 12:28:38;;;;;;;;;10.50;10.25;;;;;34.34;35.77;101217.31;5013731;28;45405;-75
2023/06/22 12:31:04;;;;;;;;;10.75;10.50;;;;;34.37;35.60;101221.56;5019251;28;45497;-77
2023/06/22 12:33:30;;;;;;;;;17.00;15.25;;;;;34.12;35.53;101219.41;5048528;28;45314;-75
2023/06/22 12:35:56;;;;;;;;;11.75;9.50;;;;;34.07;36.22;101223.91;5042438;28;45267;-76
2023/06/22 12:38:21;;;;;;;;;14.25;11.25;;;;;34.11;36.00;101220.47;5035457;28;46646;-76
2023/06/22 12:40:47;;;;;;;;;12.50;12.50;;;;;34.15;35.72;101234.81;5035194;28;48471;-76
2023/06/22 12:43:12;;;;;;;;;15.75;15.50;;;;;33.92;36.51;101249.16;5053677;28;45514;-76
2023/06/22 12:45:37;;;;;;;;;14.75;14.50;;;;;33.70;36.71;101247.53;5047120;28;45223;-76
2023/06/22 12:48:03;;;;;;;;;16.50;15.00;;;;;33.41;36.84;101255.16;5057404;28;45171;-76
2023/06/22 12:50:28;;;;;;;;;15.75;15.75;;;;;33.15;37.28;101257.78;5056704;28;46280;-77
2023/06/22 12:52:54;;;;;;;;;14.75;12.75;;;;;33.11;37.72;101267.56;5056712;28;45406;-76
2023/06/22 12:55:19;;;;;;;;;13.50;13.25;;;;;33.16;37.55;101264.19;5056583;28;45461;-77
2023/06/22 12:57:44;;;;;;;;;14.75;13.25;;;;;33.02;37.15;101269.66;5056856;28;45559;-75
2023/06/22 13:00:11;;;;;;;;;14.75;13.75;;;;;32.95;37.93;101265.13;5056558;28;47257;-75
2023/06/22 13:02:36;;;;;;;;;16.50;15.00;;;;;33.04;37.85;101261.13;5056755;28;45409;-76
2023/06/22 13:05:02;;;;;;;;;17.75;17.25;;;;;33.19;37.51;101261.84;5049659;28;45476;-74
2023/06/22 13:07:28;;;;;;;;;14.00;13.50;;;;;32.98;36.93;101264.72;5041801;28;45313;-75
2023/06/22 13:09:53;;;;;;;;;14.00;14.00;;;;;32.85;37.69;101267.41;5038345;28;46595;-77
2023/06/22 13:12:21;;;;;;;;;16.50;16.50;;;;;32.87;37.46;101260.59;5056634;28;45393;-76
2023/06/22 13:14:47;;;;;;;;;17.50;15.75;;;;;32.88;37.46;101253.13;5056719;28;45434;-75
2023/06/22 13:17:13;;;;;;;;;11.50;11.50;;;;;32.91;37.65;101252.72;5038482;28;45522;-75
2023/06/22 13:19:39;;;;;;;;;17.00;15.75;;;;;32.71;37.75;101248.94;5056438;28;45926;-76
2023/06/22 13:22:05;;;;;;;;;15.00;14.00;;;;;32.73;38.28;101244.06;5038245;28;45459;-76
2023/06/22 13:24:31;;;;;;;;;14.25;14.25;;;;;32.82;38.14;101256.72;5056649;28;45834;-75
2023/06/22 13:26:57;;;;;;;;;16.25;12.75;;;;;32.85;37.79;101251.59;5056165;28;45321;-77
2023/06/22 13:29:22;;;;;;;;;15.00;12.00;;;;;32.73;38.62;101255.16;5055864;28;54465;-76
2023/06/22 13:31:47;;;;;;;;;23.25;20.75;;;;;32.71;37.97;101254.50;5049331;28;50472;-76
2023/06/22 13:34:13;;;;;;;;;13.75;13.50;;;;;32.65;38.29;101251.44;5036201;28;45608;-77
2023/06/22 13:36:38;;;;;;;;;23.50;19.50;;;;;32.69;38.18;101244.44;5050919;28;45481;-77
2023/06/22 13:39:03;;;;;;;;;18.50;16.25;;;;;32.75;38.62;101251.09;5056215;28;45290;-76
2023/06/22 13:41:29;;;;;;;;;16.00;16.00;;;;;32.92;37.93;101262.78;5055816;28;45393;-76
2023/06/22 13:43:54;;;;;;;;;19.25;19.00;;;;;32.52;38.71;101276.31;5038125;28;45463;-75
2023/06/22 13:46:20;;;;;;;;;16.00;16.00;;;;;32.58;38.17;101274.66;5056132;28;45457;-76
2023/06/22 13:48:45;;;;;;;;;20.75;19.50;;;;;32.62;38.25;101268.50;5056079;28;45948;-76
2023/06/22 13:51:11;;;;;;;;;16.00;15.00;;;;;32.61;38.20;101271.47;5055969;28;45280;-77
2023/06/22 13:53:36;;;;;;;;;18.50;18.50;;;;;32.58;37.67;101286.59;5056162;28;45259;-77
2023/06/22 13:56:01;;;;;;;;;20.75;17.75;;;;;32.74;37.74;101284.66;5055632;28;45513;-76
2023/06/22 13:58:26;;;;;;;;;19.00;16.75;;;;;32.91;37.60;101286.91;5054874;28;46609;-76
2023/06/22 14:00:52;;;;;;;;;17.00;17.00;;;;;32.83;37.48;101289.00;5055811;28;45395;-76
2023/06/22 14:03:17;;;;;;;;;17.75;16.50;;;;;32.68;37.16;101298.22;5056129;28;45430;-78
2023/06/22 14:05:43;;;;;;;;;19.00;18.25;;;;;32.61;37.65;101305.66;5042757;28;46445;-77
2023/06/22 14:08:09;;;;;;;;;14.25;13.00;;;;;32.72;37.31;101297.88;5046194;28;45196;-76
2023/06/22 14:10:34;;;;;;;;;15.75;15.75;;;;;32.84;37.34;101287.91;5055441;28;45833;-75
2023/06/22 14:13:00;;;;;;;;;17.25;15.25;;;;;32.96;37.07;101297.41;5037548;28;45349;-76
2023/06/22 14:15:25;;;;;;;;;17.50;17.25;;;;;32.90;36.77;101295.44;5055583;28;45486;-74
2023/06/22 14:17:50;;;;;;;;;19.50;18.75;;;;;32.77;36.73;101292.56;5055724;28;46158;-76
2023/06/22 14:20:16;;;;;;;;;17.00;17.00;;;;;32.94;36.74;101285.63;5055371;28;45413;-76
2023/06/22 14:22:42;;;;;;;;;14.75;13.25;;;;;33.03;36.67;101293.59;5055593;28;45671;-76
2023/06/22 14:25:09;;;;;;;;;15.00;15.00;;;;;33.16;36.32;101289.19;5055344;28;45335;-75
2023/06/22 14:27:34;;;;;;;;;14.75;14.75;;;;;33.20;36.37;101285.78;5055122;28;46221;-76
2023/06/22 14:29:59;;;;;;;;;16.25;14.50;;;;;33.27;36.58;101299.75;5034771;28;45349;-74
2023/06/22 14:32:25;;;;;;;;;15.75;15.75;;;;;33.34;36.53;101292.34;5056338;28;45484;-76
2023/06/22 14:34:50;;;;;;;;;13.25;11.75;;;;;33.39;36.64;101300.91;5036793;28;45329;-78
2023/06/22 14:37:15;;;;;;;;;12.25;10.25;;;;;33.54;35.97;101307.16;5055277;28;45995;-76
2023/06/22 14:39:41;;;;;;;;;15.50;14.75;;;;;33.55;35.92;101306.09;5054711;28;49931;-75
2023/06/22 14:42:07;;;;;;;;;13.25;12.25;;;;;33.68;35.74;101308.09;5055490;28;45268;-76
2023/06/22 14:44:33;;;;;;;;;14.75;12.75;;;;;33.72;36.04;101301.91;5032741;28;45956;-76
2023/06/22 14:46:58;;;;;;;;;13.50;13.00;;;;;33.89;35.39;101304.34;5044402;28;45402;-76
2023/06/22 14:49:24;;;;;;;;;10.00;9.50;;;;;33.90;35.29;101312.47;5054927;28;45343;-77
2023/06/22 14:51:49;;;;;;;;;17.00;16.00;;;;;33.84;34.88;101298.56;5055177;28;45345;-77
2023/06/22 14:54:15;;;;;;;;;11.50;11.50;;;;;33.96;35.21;101305.22;5054823;28;45212;-76
2023/06/22 14:56:40;;;;;;;;;11.75;10.00;;;;;34.13;34.98;101307.41;5054708;28;46112;-76
2023/06/22 14:59:06;;;;;;;;;11.25;9.75;;;;;34.18;34.60;101302.06;5054835;28;45311;-76
2023/06/22 15:01:31;;;;;;;;;12.50;7.00;;;;;34.26;34.80;101314.09;5055274;28;45406;-75
2023/06/22 15:03:56;;;;;;;;;10.50;10.50;;;;;34.27;34.05;101305.53;5054155;28;45477;-75
2023/06/22 15:06:22;;;;;;;;;7.25;7.00;;;;;34.38;34.19;101310.47;5036228;28;45277;-75
2023/06/22 15:08:47;;;;;;;;;8.00;8.00;;;;;34.45;33.96;101305.75;5050481;28;45469;-77
2023/06/22 15:11:13;;;;;;;;;10.00;10.00;;;;;34.55;33.76;101308.09;5055080;28;45316;-76
2023/06/22 15:13:40;;;;;;;;;9.00;9.00;;;;;34.49;33.06;101312.63;5054773;28;45333;-77
2023/06/22 15:16:05;;;;;;;;;9.00;7.25;;;;;34.49;33.23;101308.97;5054758;28;46551;-77
2023/06/22 15:18:33;;;;;;;;;7.50;6.50;;;;;34.60;33.11;101302.78;5031784;28;45693;-73
2023/06/22 15:21:01;;;;;;;;;8.25;7.50;;;;;34.71;33.18;101296.53;5044209;28;45373;-76
2023/06/22 15:23:28;;;;;;;;;10.00;7.00;;;;;34.80;32.76;101305.56;5054335;28;45436;-75
2023/06/22 15:25:55;;;;;;;;;9.50;6.75;;;;;34.82;32.04;101300.63;5053380;28;46085;-74
2023/06/22 15:28:23;;;;;;;;;7.25;6.25;;;;;34.92;32.61;101312.22;5029694;28;45311;-75
2023/06/22 15:30:49;;;;;;;;;6.50;6.50;;;;;35.31;32.66;101321.56;5050508;28;45220;-76
2023/06/22 15:33:14;;;;;;;;;10.00;8.50;;;;;35.83;32.07;101314.97;5052256;28;45517;-77
2023/06/22 15:35:39;;;;;;;;;10.25;7.50;;;;;36.23;30.96;101302.56;5053183;28;46120;-76
2023/06/22 15:38:05;;;;;;;;;10.00;8.25;;;;;36.75;31.42;101311.59;5034714;28;45321;-75